createdAt,value
2018-02-08T00:01:54.326Z,98388.73
2018-02-08T00:04:23.394Z,98400.79
2018-02-08T00:06:51.710Z,98395.89
2018-02-08T00:09:19.976Z,98393.83
2018-02-08T00:11:49.040Z,98398.75
2018-02-08T00:14:17.381Z,98402.84
2018-02-08T00:16:45.665Z,98398.98
2018-02-08T00:19:13.986Z,98403.66
2018-02-08T00:21:42.303Z,98403.59
2018-02-08T00:24:10.881Z,98404.70
2018-02-08T00:26:39.223Z,98409.28
2018-02-08T00:29:07.491Z,98401.97
2018-02-08T00:31:35.793Z,98402.63
2018-02-08T00:34:04.867Z,98403.27
2018-02-08T00:36:33.164Z,98394.05
2018-02-08T00:39:01.448Z,98395.30
2018-02-08T00:41:30.539Z,98393.36
2018-02-08T00:43:58.866Z,98393.89
2018-02-08T00:46:28.503Z,98396.53
2018-02-08T00:48:56.799Z,98398.22
2018-02-08T00:51:25.109Z,98403.67
2018-02-08T00:53:53.404Z,98406.59
2018-02-08T00:56:21.968Z,98410.73
2018-02-08T00:58:51.146Z,98412.31
2018-02-08T01:01:20.218Z,98409.08
2018-02-08T01:03:48.509Z,98408.92
2018-02-08T01:06:16.823Z,98416.30
2018-02-08T01:08:45.884Z,98405.45
2018-02-08T01:11:14.177Z,98408.56
2018-02-08T01:13:43.240Z,98405.63
2018-02-08T01:16:11.561Z,98407.10
2018-02-08T01:18:40.637Z,98413.48
2018-02-08T01:21:08.918Z,98411.42
2018-02-08T01:23:37.240Z,98410.60
2018-02-08T01:26:05.538Z,98419.14
2018-02-08T01:28:33.843Z,98417.16
2018-02-08T01:31:02.170Z,98411.75
2018-02-08T01:33:30.467Z,98413.12
2018-02-08T01:35:58.765Z,98403.27
2018-02-08T01:38:27.053Z,98402.97
2018-02-08T01:40:55.612Z,98399.61
2018-02-08T01:43:23.897Z,98402.94
2018-02-08T01:45:52.191Z,98405.74
2018-02-08T01:48:20.484Z,98402.34
2018-02-08T01:50:49.552Z,98406.20
2018-02-08T01:53:17.845Z,98404.04
2018-02-08T01:55:46.145Z,98401.98
2018-02-08T01:58:15.196Z,98399.08
2018-02-08T02:00:43.504Z,98394.94
2018-02-08T02:03:11.814Z,98395.63
2018-02-08T02:05:40.888Z,98390.55
2018-02-08T02:08:09.187Z,98394.22
2018-02-08T02:10:37.491Z,98396.80
2018-02-08T02:13:05.759Z,98394.38
2018-02-08T02:15:34.103Z,98398.31
2018-02-08T02:18:02.395Z,98395.46
2018-02-08T02:20:31.749Z,98394.42
2018-02-08T02:23:00.022Z,98388.83
2018-02-08T02:25:28.321Z,98394.70
2018-02-08T02:27:56.862Z,98390.23
2018-02-08T02:30:25.148Z,98395.69
2018-02-08T02:32:53.426Z,98402.75
2018-02-08T02:35:21.776Z,98403.55
2018-02-08T02:37:50.059Z,98400.80
2018-02-08T02:40:18.384Z,98400.49
2018-02-08T02:42:46.692Z,98401.78
2018-02-08T02:45:14.959Z,98403.70
2018-02-08T02:47:43.268Z,98402.45
2018-02-08T02:50:12.321Z,98398.98
2018-02-08T02:52:40.614Z,98394.63
2018-02-08T02:55:09.706Z,98397.14
2018-02-08T02:57:37.994Z,98400.16
2018-02-08T03:00:06.300Z,98399.13
2018-02-08T03:02:34.580Z,98394.38
2018-02-08T03:05:02.856Z,98401.94
2018-02-08T03:07:31.138Z,98392.55
2018-02-08T03:09:59.431Z,98396.31
2018-02-08T03:12:27.718Z,98398.52
2018-02-08T03:14:56.034Z,98392.20
2018-02-08T03:17:24.330Z,98388.48
2018-02-08T03:19:53.366Z,98388.98
2018-02-08T03:22:21.663Z,98387.69
2018-02-08T03:24:49.966Z,98384.80
2018-02-08T03:27:18.257Z,98393.61
2018-02-08T03:29:47.363Z,98394.02
2018-02-08T03:32:16.416Z,98394.24
2018-02-08T03:34:44.706Z,98393.66
2018-02-08T03:37:13.003Z,98393.24
2018-02-08T03:39:42.045Z,98398.42
2018-02-08T03:42:10.318Z,98394.80
2018-02-08T03:44:38.625Z,98403.47
2018-02-08T03:47:06.913Z,98404.41
2018-02-08T03:49:35.220Z,98407.13
2018-02-08T03:52:04.573Z,98410.66
2018-02-08T03:54:32.844Z,98404.90
2018-02-08T03:57:01.134Z,98406.16
2018-02-08T03:59:29.449Z,98404.31
2018-02-08T04:01:58.513Z,98405.39
2018-02-08T04:04:26.797Z,98408.99
2018-02-08T04:06:55.113Z,98410.86
2018-02-08T04:09:24.173Z,98411.75
2018-02-08T04:11:52.467Z,98408.84
2018-02-08T04:14:20.773Z,98407.20
2018-02-08T04:16:49.073Z,98413.22
2018-02-08T04:19:17.358Z,98407.91
2018-02-08T04:21:45.672Z,98416.52
2018-02-08T04:24:13.976Z,98417.91
2018-02-08T04:26:43.028Z,98423.45
2018-02-08T04:29:11.331Z,98420.67
2018-02-08T04:31:39.633Z,98422.92
2018-02-08T04:34:08.699Z,98423.52
2018-02-08T04:36:36.988Z,98424.16
2018-02-08T04:39:22.862Z,98425.99
2018-02-08T04:42:08.636Z,98438.88
2018-02-08T04:44:54.501Z,98436.91
2018-02-08T04:47:28.481Z,98435.51
2018-02-08T04:49:57.548Z,98447.45
2018-02-08T04:52:25.823Z,98449.88
2018-02-08T04:54:54.136Z,98453.07
2018-02-08T04:57:23.194Z,98451.79
2018-02-08T04:59:51.480Z,98461.72
2018-02-08T05:02:19.788Z,98463.00
2018-02-08T05:04:48.833Z,98462.69
2018-02-08T05:07:17.103Z,98471.85
2018-02-08T05:09:45.409Z,98471.25
2018-02-08T05:12:13.698Z,98469.79
2018-02-08T05:14:42.288Z,98473.13
2018-02-08T05:17:10.574Z,98469.28
2018-02-08T05:19:39.621Z,98471.91
2018-02-08T05:22:08.195Z,98476.73
2018-02-08T05:24:36.477Z,98474.09
2018-02-08T05:27:04.750Z,98470.22
2018-02-08T05:29:33.059Z,98471.22
2018-02-08T05:32:01.341Z,98474.34
2018-02-08T05:34:29.657Z,98462.97
2018-02-08T05:36:58.687Z,98472.59
2018-02-08T05:39:27.003Z,98467.16
2018-02-08T05:41:55.305Z,98473.34
2018-02-08T05:44:24.352Z,98472.53
2018-02-08T05:46:52.664Z,98474.97
2018-02-08T05:49:21.712Z,98475.09
2018-02-08T05:51:50.040Z,98469.97
2018-02-08T05:54:19.133Z,98474.10
2018-02-08T05:56:47.412Z,98472.85
2018-02-08T05:59:15.704Z,98471.14
2018-02-08T06:01:44.013Z,98476.50
2018-02-08T06:04:12.302Z,98481.29
2018-02-08T06:06:40.592Z,98487.87
2018-02-08T06:09:09.500Z,98480.62
2018-02-08T06:11:37.792Z,98487.11
2018-02-08T06:14:06.101Z,98490.79
2018-02-08T06:16:34.417Z,98489.22
2018-02-08T06:19:02.745Z,98492.47
2018-02-08T06:21:31.037Z,98500.44
2018-02-08T06:23:59.352Z,98501.58
2018-02-08T06:26:27.637Z,98500.75
2018-02-08T06:28:55.948Z,98509.38
2018-02-08T06:31:24.588Z,98507.31
2018-02-08T06:33:52.892Z,98511.08
2018-02-08T06:36:21.195Z,98511.53
2018-02-08T06:38:49.486Z,98510.00
2018-02-08T06:41:17.782Z,98508.11
2018-02-08T06:43:46.064Z,98512.19
2018-02-08T06:46:14.365Z,98517.18
2018-02-08T06:48:42.629Z,98515.22
2018-02-08T06:51:10.959Z,98518.34
2018-02-08T06:53:40.012Z,98521.87
2018-02-08T06:56:08.313Z,98522.80
2018-02-08T06:58:36.604Z,98523.54
2018-02-08T07:01:04.894Z,98531.19
2018-02-08T07:03:33.183Z,98522.55
2018-02-08T07:06:01.499Z,98528.70
2018-02-08T07:08:29.799Z,98528.90
2018-02-08T07:10:58.109Z,98540.16
2018-02-08T07:13:26.400Z,98549.25
2018-02-08T07:15:54.706Z,98547.21
2018-02-08T07:18:23.009Z,98549.80
2018-02-08T07:20:51.294Z,98547.06
2018-02-08T07:23:19.592Z,98550.45
2018-02-08T07:25:48.678Z,98550.52
2018-02-08T07:28:16.988Z,98561.95
2018-02-08T07:30:45.274Z,98557.57
2018-02-08T07:33:13.572Z,98561.55
2018-02-08T07:35:41.870Z,98557.31
2018-02-08T07:38:10.224Z,98562.09
2018-02-08T07:40:39.858Z,98566.41
2018-02-08T07:43:08.146Z,98563.64
2018-02-08T07:45:36.441Z,98569.08
2018-02-08T07:48:04.756Z,98570.02
2018-02-08T07:50:33.048Z,98571.70
2018-02-08T07:53:01.381Z,98574.17
2018-02-08T07:55:30.439Z,98577.57
2018-02-08T07:57:58.720Z,98582.59
2018-02-08T08:00:27.049Z,98578.73
2018-02-08T08:02:55.362Z,98583.50
2018-02-08T08:05:23.994Z,98581.01
2018-02-08T08:07:52.322Z,98586.02
2018-02-08T08:10:20.666Z,98578.40
2018-02-08T08:12:49.743Z,98579.61
2018-02-08T08:15:18.052Z,98581.42
2018-02-08T08:17:46.370Z,98578.70
2018-02-08T08:20:14.635Z,98587.42
2018-02-08T08:22:42.927Z,98578.65
2018-02-08T08:25:11.221Z,98582.28
2018-02-08T08:27:39.514Z,98575.77
2018-02-08T08:30:08.402Z,98582.03
2018-02-08T08:32:36.693Z,98581.31
2018-02-08T08:35:05.731Z,98581.34
2018-02-08T08:37:34.018Z,98586.28
2018-02-08T08:40:02.306Z,98580.91
2018-02-08T08:42:31.210Z,98583.97
2018-02-08T08:44:59.550Z,98587.55
2018-02-08T08:47:27.848Z,98585.72
2018-02-08T08:49:56.160Z,98584.27
2018-02-08T08:52:24.470Z,98588.75
2018-02-08T08:54:52.793Z,98589.81
2018-02-08T08:57:21.098Z,98591.97
2018-02-08T08:59:49.382Z,98597.90
2018-02-08T09:02:18.199Z,98594.84
2018-02-08T09:04:46.491Z,98603.84
2018-02-08T09:07:15.084Z,98603.84
2018-02-08T09:09:43.366Z,98600.02
2018-02-08T09:12:11.658Z,98606.86
2018-02-08T09:14:40.015Z,98612.96
2018-02-08T09:17:08.300Z,98610.14
2018-02-08T09:19:36.618Z,98607.64
2018-02-08T09:22:04.922Z,98610.07
2018-02-08T09:24:33.202Z,98615.89
2018-02-08T09:27:01.521Z,98612.05
2018-02-08T09:29:29.807Z,98611.25
2018-02-08T09:31:58.121Z,98610.59
2018-02-08T09:34:27.182Z,98607.97
2018-02-08T09:36:55.460Z,98614.23
2018-02-08T09:39:23.790Z,98617.26
2018-02-08T09:41:52.077Z,98617.84
2018-02-08T09:44:20.363Z,98614.88
2018-02-08T09:46:48.658Z,98616.58
2018-02-08T09:49:16.932Z,98611.76
2018-02-08T09:51:45.533Z,98607.75
2018-02-08T09:54:13.832Z,98609.57
2018-02-08T09:56:42.114Z,98611.09
2018-02-08T09:59:10.971Z,98606.83
2018-02-08T10:01:39.264Z,98614.72
2018-02-08T10:04:07.552Z,98613.62
2018-02-08T10:06:36.457Z,98618.27
2018-02-08T10:09:04.806Z,98624.56
2018-02-08T10:11:33.089Z,98626.20
2018-02-08T10:14:01.407Z,98629.26
2018-02-08T10:16:29.691Z,98629.69
2018-02-08T10:18:57.972Z,98636.48
2018-02-08T10:21:26.282Z,98633.23
2018-02-08T10:23:54.561Z,98633.45
2018-02-08T10:26:22.849Z,98627.29
2018-02-08T10:28:51.115Z,98627.22
2018-02-08T10:31:19.399Z,98625.75
2018-02-08T10:33:47.696Z,98624.79
2018-02-08T10:36:15.996Z,98625.02
2018-02-08T10:38:45.082Z,98622.68
2018-02-08T10:41:13.381Z,98627.05
2018-02-08T10:43:42.457Z,98623.37
2018-02-08T10:46:10.766Z,98625.62
2018-02-08T10:48:39.071Z,98619.09
2018-02-08T10:51:07.872Z,98634.59
2018-02-08T10:53:36.139Z,98626.09
2018-02-08T10:56:04.434Z,98624.70
2018-02-08T10:58:32.732Z,98624.47
2018-02-08T11:01:01.053Z,98616.83
2018-02-08T11:03:29.375Z,98615.73
2018-02-08T11:05:57.671Z,98622.02
2018-02-08T11:08:25.948Z,98621.91
2018-02-08T11:10:54.264Z,98618.56
2018-02-08T11:13:22.525Z,98611.06
2018-02-08T11:15:51.125Z,98613.35
2018-02-08T11:18:19.413Z,98611.11
2018-02-08T11:20:47.724Z,98612.44
2018-02-08T11:23:16.031Z,98605.36
2018-02-08T11:25:44.308Z,98606.75
2018-02-08T11:28:12.613Z,98602.78
2018-02-08T11:30:44.485Z,98601.31
2018-02-08T11:33:25.619Z,98603.26
2018-02-08T11:35:54.017Z,98603.23
2018-02-08T11:38:22.273Z,98605.92
2018-02-08T11:40:50.617Z,98607.98
2018-02-08T11:43:18.892Z,98602.28
2018-02-08T11:45:47.184Z,98601.80
2018-02-08T11:48:15.487Z,98597.58
2018-02-08T11:50:43.774Z,98595.73
2018-02-08T11:53:12.110Z,98596.87
2018-02-08T11:55:40.377Z,98591.16
2018-02-08T11:58:08.674Z,98580.70
2018-02-08T12:00:36.972Z,98574.36
2018-02-08T12:03:05.268Z,98576.97
2018-02-08T12:05:34.308Z,98579.11
2018-02-08T12:08:02.605Z,98577.92
2018-02-08T12:10:30.874Z,98581.83
2018-02-08T12:12:59.139Z,98585.34
2018-02-08T12:15:27.441Z,98579.98
2018-02-08T12:17:55.734Z,98579.80
2018-02-08T12:20:24.020Z,98570.94
2018-02-08T12:22:52.298Z,98566.53
2018-02-08T12:25:20.572Z,98562.86
2018-02-08T12:27:48.892Z,98563.56
2018-02-08T12:30:17.170Z,98559.64
2018-02-08T12:32:45.490Z,98551.75
2018-02-08T12:35:13.781Z,98547.06
2018-02-08T12:37:42.044Z,98541.64
2018-02-08T12:40:10.729Z,98536.83
2018-02-08T12:42:39.005Z,98539.93
2018-02-08T12:45:07.278Z,98540.09
2018-02-08T12:47:35.582Z,98541.12
2018-02-08T12:50:03.839Z,98544.53
2018-02-08T12:52:32.150Z,98542.78
2018-02-08T12:55:00.399Z,98532.30
2018-02-08T12:57:28.695Z,98530.08
2018-02-08T12:59:56.980Z,98522.70
2018-02-08T13:02:25.265Z,98519.89
2018-02-08T13:04:53.582Z,98521.30
2018-02-08T13:07:22.724Z,98521.13
2018-02-08T13:09:51.006Z,98522.95
2018-02-08T13:12:19.293Z,98516.53
2018-02-08T13:14:47.567Z,98513.81
2018-02-08T13:17:16.612Z,98515.04
2018-02-08T13:19:44.901Z,98513.34
2018-02-08T13:22:13.186Z,98515.64
2018-02-08T13:24:41.485Z,98507.34
2018-02-08T13:27:09.754Z,98506.15
2018-02-08T13:29:38.015Z,98509.00
2018-02-08T13:32:08.721Z,98502.33
2018-02-08T13:34:37.014Z,98508.52
2018-02-08T13:37:05.317Z,98505.82
2018-02-08T13:39:34.494Z,98508.03
2018-02-08T13:42:09.765Z,98509.35
2018-02-08T13:44:38.045Z,98510.41
2018-02-08T13:47:09.413Z,98510.17
2018-02-08T13:49:37.698Z,98511.17
2018-02-08T13:52:12.217Z,98512.41
2018-02-08T13:58:06.072Z,98508.73
2018-02-08T14:00:40.164Z,98507.73
2018-02-08T14:03:09.005Z,98503.22
2018-02-08T14:05:37.274Z,98503.09
2018-02-08T14:08:05.564Z,98511.12
2018-02-08T14:10:34.342Z,98500.40
2018-02-08T14:13:02.596Z,98510.91
2018-02-08T14:15:30.875Z,98508.19
2018-02-08T14:17:59.573Z,98511.14
2018-02-08T14:20:27.857Z,98513.20
2018-02-08T14:22:56.142Z,98513.34
2018-02-08T14:25:24.445Z,98503.77
2018-02-08T14:27:52.730Z,98501.33
2018-02-08T14:30:21.805Z,98503.73
2018-02-08T14:32:50.091Z,98503.05
2018-02-08T14:35:18.382Z,98502.13
2018-02-08T14:37:46.673Z,98501.78
2018-02-08T14:40:14.992Z,98498.11
2018-02-08T14:42:43.280Z,98500.59
2018-02-08T14:45:12.000Z,98497.19
2018-02-08T14:47:40.298Z,98498.87
2018-02-08T14:50:08.607Z,98494.64
2018-02-08T14:52:36.936Z,98499.56
2018-02-08T14:55:05.198Z,98505.83
2018-02-08T14:57:33.485Z,98505.69
2018-02-08T15:00:02.552Z,98506.19
2018-02-08T15:02:30.855Z,98510.84
2018-02-08T15:04:59.623Z,98508.47
2018-02-08T15:07:27.882Z,98503.96
2018-02-08T15:09:56.184Z,98511.33
2018-02-08T15:12:24.495Z,98503.14
2018-02-08T15:14:53.552Z,98505.52
2018-02-08T15:17:21.819Z,98506.53
2018-02-08T15:19:50.185Z,98508.98
2018-02-08T15:22:18.576Z,98509.59
2018-02-08T15:24:46.850Z,98507.39
2018-02-08T15:27:15.157Z,98506.05
2018-02-08T15:29:43.429Z,98502.78
2018-02-08T15:32:11.714Z,98504.20
2018-02-08T15:34:40.005Z,98499.23
2018-02-08T15:37:08.296Z,98500.66
2018-02-08T15:39:37.350Z,98511.12
2018-02-08T15:42:05.627Z,98504.16
2018-02-08T15:44:34.284Z,98501.80
2018-02-08T15:47:03.005Z,98508.18
2018-02-08T15:49:31.293Z,98502.72
2018-02-08T15:51:59.578Z,98508.30
2018-02-08T15:54:27.828Z,98505.06
2018-02-08T15:56:56.090Z,98508.73
2018-02-08T15:59:24.408Z,98512.05
2018-02-08T16:01:52.692Z,98514.55
2018-02-08T16:04:21.363Z,98517.02
2018-02-08T16:06:49.625Z,98513.16
2018-02-08T16:09:17.921Z,98520.14
2018-02-08T16:11:46.215Z,98519.67
2018-02-08T16:14:14.513Z,98520.35
2018-02-08T16:16:43.558Z,98528.47
2018-02-08T16:19:11.848Z,98524.80
2018-02-08T16:21:40.114Z,98524.95
2018-02-08T16:24:08.437Z,98523.57
2018-02-08T16:26:37.484Z,98523.14
2018-02-08T16:29:05.759Z,98518.92
2018-02-08T16:31:34.025Z,98523.84
2018-02-08T16:34:02.323Z,98525.82
2018-02-08T16:36:30.635Z,98526.29
2018-02-08T16:38:58.955Z,98523.77
2018-02-08T16:41:27.297Z,98532.04
2018-02-08T16:43:55.610Z,98527.94
2018-02-08T16:46:23.902Z,98537.35
2018-02-08T16:48:52.212Z,98536.15
2018-02-08T16:51:20.630Z,98540.64
2018-02-08T16:53:50.706Z,98544.44
2018-02-08T16:56:19.102Z,98545.51
2018-02-08T16:58:47.427Z,98537.84
2018-02-08T17:01:15.870Z,98541.36
2018-02-08T17:03:44.996Z,98535.16
2018-02-08T17:06:13.381Z,98539.08
2018-02-08T17:08:41.714Z,98534.67
2018-02-08T17:11:10.205Z,98538.92
2018-02-08T17:13:38.531Z,98538.25
2018-02-08T17:16:06.866Z,98538.02
2018-02-08T17:18:35.214Z,98539.31
2018-02-08T17:21:03.511Z,98542.25
2018-02-08T17:23:31.900Z,98546.70
2018-02-08T17:26:00.385Z,98546.24
2018-02-08T17:28:28.764Z,98549.70
2018-02-08T17:30:58.081Z,98553.66
2018-02-08T17:33:27.210Z,98556.45
2018-02-08T17:35:55.646Z,98554.95
2018-02-08T17:38:24.013Z,98551.82
2018-02-08T17:40:52.345Z,98552.52
2018-02-08T17:43:20.777Z,98553.98
2018-02-08T17:45:49.550Z,98550.20
2018-02-08T17:48:17.912Z,98554.94
2018-02-08T17:50:46.210Z,98552.28
2018-02-08T17:53:14.517Z,98555.23
2018-02-08T17:55:42.850Z,98555.69
2018-02-08T17:58:11.120Z,98560.91
2018-02-08T18:00:39.691Z,98557.75
2018-02-08T18:03:07.997Z,98560.52
2018-02-08T18:05:36.275Z,98556.97
2018-02-08T18:08:04.600Z,98553.94
2018-02-08T18:10:32.859Z,98557.88
2018-02-08T18:13:02.125Z,98557.45
2018-02-08T18:15:30.813Z,98552.56
2018-02-08T18:17:59.125Z,98556.93
2018-02-08T18:20:27.425Z,98549.19
2018-02-08T18:22:55.730Z,98555.58
2018-02-08T18:25:24.046Z,98556.34
2018-02-08T18:27:52.344Z,98563.34
2018-02-08T18:30:21.438Z,98564.59
2018-02-08T18:32:49.715Z,98574.48
2018-02-08T18:35:18.798Z,98569.20
2018-02-08T18:37:47.116Z,98565.53
2018-02-08T18:40:15.390Z,98567.70
2018-02-08T18:42:43.749Z,98562.14
2018-02-08T18:45:12.793Z,98567.00
2018-02-08T18:47:41.095Z,98562.31
2018-02-08T18:50:09.378Z,98568.48
2018-02-08T18:52:37.692Z,98565.45
2018-02-08T18:55:05.962Z,98568.81
2018-02-08T18:57:34.248Z,98569.61
2018-02-08T19:00:02.569Z,98568.43
2018-02-08T19:02:30.857Z,98564.50
2018-02-08T19:04:59.145Z,98565.03
2018-02-08T19:07:27.460Z,98564.52
2018-02-08T19:09:56.548Z,98563.48
2018-02-08T19:12:24.853Z,98557.10
2018-02-08T19:14:53.136Z,98565.84
2018-02-08T19:17:21.416Z,98563.29
2018-02-08T19:19:50.150Z,98562.12
2018-02-08T19:22:18.440Z,98562.38
2018-02-08T19:24:46.716Z,98566.41
2018-02-08T19:27:15.026Z,98566.09
2018-02-08T19:29:43.304Z,98563.75
2018-02-08T19:32:11.603Z,98569.19
2018-02-08T19:34:39.890Z,98571.33
2018-02-08T19:37:08.253Z,98571.73
2018-02-08T19:39:36.574Z,98574.20
2018-02-08T19:42:04.876Z,98579.45
2018-02-08T19:44:33.177Z,98570.66
2018-02-08T19:47:01.453Z,98574.27
2018-02-08T19:49:30.526Z,98564.61
2018-02-08T19:51:58.847Z,98566.43
2018-02-08T19:54:27.149Z,98562.45
2018-02-08T19:56:55.435Z,98561.00
2018-02-08T19:59:23.760Z,98559.47
2018-02-08T20:01:52.032Z,98571.77
2018-02-08T20:04:21.108Z,98562.80
2018-02-08T20:06:49.416Z,98568.59
2018-02-08T20:09:17.694Z,98564.42
2018-02-08T20:11:45.967Z,98571.19
2018-02-08T20:14:20.183Z,98569.95
2018-02-08T20:16:48.459Z,98570.14
2018-02-08T20:19:16.766Z,98572.66
2018-02-08T20:21:45.862Z,98566.26
2018-02-08T20:24:14.148Z,98569.91
2018-02-08T20:26:42.493Z,98566.39
2018-02-08T20:29:11.324Z,98559.21
2018-02-08T20:31:39.600Z,98561.88
2018-02-08T20:34:07.902Z,98561.23
2018-02-08T20:36:42.682Z,98560.91
2018-02-08T20:39:10.956Z,98553.99
2018-02-08T20:41:39.282Z,98558.72
2018-02-08T20:44:07.623Z,98555.75
2018-02-08T20:46:36.336Z,98556.44
2018-02-08T20:49:05.514Z,98550.64
2018-02-08T20:51:33.825Z,98551.41
2018-02-08T20:54:02.118Z,98551.69
2018-02-08T20:56:30.420Z,98546.83
2018-02-08T20:58:58.714Z,98548.93
2018-02-08T21:01:27.013Z,98548.52
2018-02-08T21:03:56.076Z,98543.06
2018-02-08T21:06:24.348Z,98546.82
2018-02-08T21:08:53.413Z,98544.80
2018-02-08T21:11:21.682Z,98544.95
2018-02-08T21:13:50.039Z,98538.05
2018-02-08T21:16:18.350Z,98539.65
2018-02-08T21:18:46.621Z,98535.33
2018-02-08T21:21:15.314Z,98539.65
2018-02-08T21:23:43.705Z,98531.31
2018-02-08T21:26:12.010Z,98528.84
2018-02-08T21:28:41.349Z,98522.92
2018-02-08T21:31:09.708Z,98519.75
2018-02-08T21:33:38.942Z,98516.02
2018-02-08T21:36:07.231Z,98515.16
2018-02-08T21:38:35.524Z,98510.56
2018-02-08T21:41:03.831Z,98511.70
2018-02-08T21:43:32.134Z,98517.83
2018-02-08T21:46:03.767Z,98516.30
2018-02-08T21:48:32.812Z,98514.42
2018-02-08T21:51:01.112Z,98505.52
2018-02-08T21:53:29.404Z,98508.04
2018-02-08T21:55:58.512Z,98502.84
2018-02-08T21:58:27.585Z,98496.06
2018-02-08T22:00:55.888Z,98506.11
2018-02-08T22:03:24.950Z,98506.89
2018-02-08T22:05:53.262Z,98501.81
2018-02-08T22:08:22.324Z,98506.91
2018-02-08T22:10:50.620Z,98503.96
2018-02-08T22:13:18.891Z,98503.96
2018-02-08T22:15:47.195Z,98499.10
2018-02-08T22:18:15.549Z,98494.14
2018-02-08T22:20:43.889Z,98494.32
2018-02-08T22:23:12.163Z,98497.73
2018-02-08T22:25:40.454Z,98496.02
2018-02-08T22:28:08.715Z,98496.72
2018-02-08T22:30:37.024Z,98500.20
2018-02-08T22:33:05.321Z,98495.42
2018-02-08T22:35:33.622Z,98496.80
2018-02-08T22:38:01.900Z,98495.65
2018-02-08T22:40:30.197Z,98492.75
2018-02-08T22:42:58.510Z,98495.98
2018-02-08T22:45:26.804Z,98499.51
2018-02-08T22:47:55.098Z,98492.95
2018-02-08T22:50:24.168Z,98493.41
2018-02-08T22:52:52.437Z,98492.48
2018-02-08T22:55:20.738Z,98501.27
2018-02-08T22:57:49.017Z,98489.82
2018-02-08T23:00:18.075Z,98487.98
2018-02-08T23:02:46.351Z,98489.09
2018-02-08T23:05:14.671Z,98486.70
2018-02-08T23:07:42.967Z,98485.28
2018-02-08T23:10:12.028Z,98482.34
2018-02-08T23:12:40.315Z,98486.20
2018-02-08T23:15:08.595Z,98477.66
2018-02-08T23:17:36.900Z,98478.02
2018-02-08T23:20:05.987Z,98476.59
2018-02-08T23:22:35.030Z,98481.19
2018-02-08T23:25:03.571Z,98478.77
2018-02-08T23:27:31.871Z,98473.16
2018-02-08T23:30:00.164Z,98469.39
2018-02-08T23:32:28.454Z,98471.03
2018-02-08T23:34:56.744Z,98471.59
2018-02-08T23:37:25.331Z,98478.33
2018-02-08T23:39:53.620Z,98478.56
2018-02-08T23:42:21.886Z,98478.41
2018-02-08T23:44:50.215Z,98470.06
2018-02-08T23:47:18.503Z,98479.52
2018-02-08T23:49:46.818Z,98478.81
2018-02-08T23:52:15.100Z,98481.84
2018-02-08T23:54:43.396Z,98481.17
2018-02-08T23:57:11.714Z,98483.05
2018-02-08T23:59:40.000Z,98480.88
